Strona główna
METAR-TAF:

METAR-TAF

Lotnisko :

Gwinner, Dakota Północna, Stany Zjednoczone

Szerokość geograficzna: 46-13-07N, Długość geograficzna: 097-38-37W, wysokość: 386 m

Aktualna obserwacja pogody

Raport powstał 19 minut temu, godzina 06:15 UTC
Wiatr 4 kt od północny wschód
Temperatura -8°C
Wilgotność 100%
Ciśnienie 1018 hPa
Widzialność: 16.1 km
Zachmurzenie całkowite na wysokości 900 ft

METAR: KGWR 280615Z AUTO 04004KT 10SM OVC009 M08/M08 A3005 RMK A01

czas: 00:34 (06:34 UTC)


TAF: brakujący

Obserwacja i prognoza pogody dla ponad 4000 lotnisk (raport METAR i TAF).

Dostępne stacje oznaczono żółtymi i czerwonymi punktami na mapie.

Najedź kursorem aby zobaczyć nazwę stacji.

Kliknij aby zobaczyć obserwacje i prognozy pogody.

Aby zmienić mapę: kliknij na zielony przycisk z czarnym krzyżykiem, aby powiększyć; na zielony przycisk z myślnikiem, aby pomniejszyć; na zielone strzałki, aby przejść do map sąsiednich.


METAR-TAF: